createdAt,value
2019-05-06T00:00:59.228Z,24.27
2019-05-06T00:03:24.889Z,25.92
2019-05-06T00:05:54.357Z,25.45
2019-05-06T00:08:23.695Z,19.75
2019-05-06T00:10:54.274Z,21.33
2019-05-06T00:13:24.179Z,25.23
2019-05-06T00:15:54.349Z,18.40
2019-05-06T00:18:24.514Z,19.52
2019-05-06T00:20:57.216Z,18.57
2019-05-06T00:23:30.921Z,21.35
2019-05-06T00:26:06.908Z,23.05
2019-05-06T00:28:49.005Z,21.33
2019-05-06T00:31:19.069Z,23.47
2019-05-06T00:33:47.490Z,26.75
2019-05-06T00:36:17.455Z,22.52
2019-05-06T00:38:47.525Z,25.05
2019-05-06T00:41:31.273Z,21.37
2019-05-06T00:43:59.676Z,18.75
2019-05-06T00:46:28.103Z,21.75
2019-05-06T00:48:56.526Z,24.05
2019-05-06T00:51:25.411Z,28.42
2019-05-06T00:53:58.645Z,21.80
2019-05-06T00:56:27.082Z,18.85
2019-05-06T00:58:55.495Z,21.05
2019-05-06T01:01:29.262Z,25.17
2019-05-06T01:03:54.066Z,16.93
2019-05-06T01:06:24.559Z,22.17
2019-05-06T01:08:54.405Z,24.25
2019-05-06T01:11:23.856Z,15.70
2019-05-06T01:13:56.511Z,22.40
2019-05-06T01:16:25.061Z,17.35
2019-05-06T01:18:54.173Z,20.12
2019-05-06T01:21:23.823Z,23.90
2019-05-06T01:23:54.283Z,20.95
2019-05-06T01:26:24.238Z,18.52
2019-05-06T01:28:54.606Z,19.30
2019-05-06T01:31:26.019Z,25.20
2019-05-06T01:33:53.705Z,20.32
2019-05-06T01:36:22.081Z,20.95
2019-05-06T01:38:58.194Z,22.15
2019-05-06T01:41:39.954Z,23.65
2019-05-06T01:44:08.338Z,22.02
2019-05-06T01:46:36.780Z,25.97
2019-05-06T01:49:05.548Z,29.35
2019-05-06T01:51:34.780Z,21.90
2019-05-06T01:54:03.907Z,21.70
2019-05-06T01:56:33.703Z,20.97
2019-05-06T01:59:04.352Z,22.75
2019-05-06T02:01:34.082Z,32.10
2019-05-06T02:04:04.407Z,23.55
2019-05-06T02:06:34.334Z,19.62
2019-05-06T02:09:04.567Z,26.57
2019-05-06T02:11:33.706Z,21.90
2019-05-06T02:14:04.565Z,29.67
2019-05-06T02:16:34.321Z,27.67
2019-05-06T02:19:04.005Z,25.27
2019-05-06T02:21:34.357Z,24.45
2019-05-06T02:24:09.845Z,18.12
2019-05-06T02:26:38.293Z,24.65
2019-05-06T02:29:15.221Z,28.02
2019-05-06T02:32:19.849Z,23.30
2019-05-06T02:34:36.477Z,17.17
2019-05-06T02:37:06.835Z,23.42
2019-05-06T02:39:35.300Z,24.20
2019-05-06T02:42:05.493Z,24.98
2019-05-06T02:44:33.935Z,23.25
2019-05-06T02:47:04.257Z,27.48
2019-05-06T02:49:34.347Z,23.02
2019-05-06T02:52:03.211Z,18.65
2019-05-06T02:54:34.553Z,20.32
2019-05-06T02:57:04.151Z,30.80
2019-05-06T02:59:33.158Z,33.58
2019-05-06T03:02:03.309Z,33.70
2019-05-06T03:04:33.294Z,25.57
2019-05-06T03:07:03.630Z,28.67
2019-05-06T03:09:33.934Z,26.48
2019-05-06T03:12:03.540Z,21.73
2019-05-06T03:14:34.594Z,23.85
2019-05-06T03:17:03.585Z,27.17
2019-05-06T03:19:34.263Z,25.40
2019-05-06T03:22:04.419Z,25.60
2019-05-06T03:24:34.530Z,26.48
2019-05-06T03:27:04.514Z,31.02
2019-05-06T03:29:33.576Z,26.15
2019-05-06T03:32:07.271Z,29.98
2019-05-06T03:34:52.426Z,30.12
2019-05-06T03:37:07.836Z,26.80
2019-05-06T03:39:33.788Z,30.43
2019-05-06T03:42:04.671Z,35.38
2019-05-06T03:44:33.783Z,27.00
2019-05-06T03:47:19.016Z,34.48
2019-05-06T03:49:54.594Z,26.27
2019-05-06T03:52:23.263Z,27.93
2019-05-06T03:54:53.712Z,32.73
2019-05-06T03:57:23.979Z,34.20
2019-05-06T03:59:53.395Z,30.72
2019-05-06T04:02:24.147Z,24.70
2019-05-06T04:04:55.721Z,24.90
2019-05-06T04:07:23.368Z,25.62
2019-05-06T04:09:53.652Z,21.70
2019-05-06T04:12:23.635Z,26.12
2019-05-06T04:14:54.043Z,31.57
2019-05-06T04:20:13.357Z,26.07
2019-05-06T04:22:46.416Z,31.55
2019-05-06T04:25:19.526Z,20.97
2019-05-06T04:27:50.335Z,32.23
2019-05-06T04:32:47.405Z,25.57
2019-05-06T04:35:15.920Z,28.62
2019-05-06T04:37:44.322Z,21.30
2019-05-06T04:40:13.386Z,24.95
2019-05-06T04:42:44.470Z,23.02
2019-05-06T04:45:16.858Z,25.55
2019-05-06T04:47:43.546Z,30.43
2019-05-06T04:50:13.214Z,27.85
2019-05-06T04:52:43.371Z,33.37
2019-05-06T04:55:13.988Z,32.33
2019-05-06T04:57:44.069Z,23.87
2019-05-06T05:00:13.380Z,25.92
2019-05-06T05:02:45.933Z,20.70
2019-05-06T05:05:13.836Z,26.10
2019-05-06T05:07:42.641Z,30.97
2019-05-06T05:10:12.942Z,24.37
2019-05-06T05:12:43.697Z,26.75
2019-05-06T05:17:45.856Z,20.45
2019-05-06T05:20:14.837Z,26.05
2019-05-06T05:22:43.323Z,25.25
2019-05-06T05:25:12.270Z,23.45
2019-05-06T05:27:42.126Z,22.85
2019-05-06T05:30:12.502Z,20.23
2019-05-06T05:32:42.841Z,22.70
2019-05-06T05:35:12.732Z,24.15
2019-05-06T05:37:41.942Z,24.87
2019-05-06T05:40:12.794Z,21.60
2019-05-06T05:42:54.526Z,18.37
2019-05-06T05:45:22.950Z,26.20
2019-05-06T05:47:54.308Z,24.90
2019-05-06T05:50:32.358Z,24.27
2019-05-06T05:53:02.447Z,20.77
2019-05-06T05:55:33.027Z,20.92
2019-05-06T05:58:03.227Z,23.00
2019-05-06T06:00:33.019Z,28.17
2019-05-06T06:03:02.915Z,23.02
2019-05-06T06:05:32.963Z,21.77
2019-05-06T06:08:02.908Z,17.85
2019-05-06T06:10:33.319Z,25.23
2019-05-06T06:13:02.177Z,19.23
2019-05-06T06:15:48.577Z,21.27
2019-05-06T06:18:24.564Z,19.42
2019-05-06T06:20:57.684Z,18.42
2019-05-06T06:23:28.106Z,16.77
2019-05-06T06:25:56.574Z,20.32
2019-05-06T06:28:25.008Z,19.05
2019-05-06T06:31:03.814Z,22.05
2019-05-06T06:33:32.987Z,24.20
2019-05-06T06:36:03.278Z,14.83
2019-05-06T06:38:48.617Z,19.23
2019-05-06T06:41:17.149Z,18.82
2019-05-06T06:43:47.212Z,17.60
2019-05-06T06:46:15.828Z,19.65
2019-05-06T06:48:44.383Z,23.77
2019-05-06T06:51:12.847Z,16.37
2019-05-06T06:53:43.487Z,19.40
2019-05-06T06:56:22.354Z,18.75
2019-05-06T06:58:52.580Z,21.87
2019-05-06T07:01:23.556Z,18.00
2019-05-06T07:03:54.198Z,19.77
2019-05-06T07:06:25.342Z,12.80
2019-05-06T07:08:53.745Z,15.88
2019-05-06T07:11:22.644Z,18.12
2019-05-06T07:13:53.200Z,15.03
2019-05-06T07:16:23.538Z,18.30
2019-05-06T07:18:52.590Z,18.92
2019-05-06T07:21:22.868Z,21.60
2019-05-06T07:23:52.990Z,17.17
2019-05-06T07:26:25.688Z,12.78
2019-05-06T07:28:55.807Z,15.32
2019-05-06T07:31:26.713Z,16.87
2019-05-06T07:33:54.476Z,16.23
2019-05-06T07:36:23.016Z,14.95
2019-05-06T07:38:52.796Z,13.85
2019-05-06T07:41:23.570Z,14.23
2019-05-06T07:43:56.714Z,15.43
2019-05-06T07:46:29.824Z,20.95
2019-05-06T07:48:58.257Z,13.28
2019-05-06T07:51:26.687Z,17.00
2019-05-06T07:53:55.131Z,22.73
2019-05-06T07:56:23.562Z,14.15
2019-05-06T07:58:53.662Z,17.98
2019-05-06T08:01:25.963Z,15.63
2019-05-06T08:03:53.922Z,11.53
2019-05-06T08:06:22.795Z,13.62
2019-05-06T08:08:53.655Z,14.43
2019-05-06T08:11:22.308Z,15.32
2019-05-06T08:13:52.741Z,12.45
2019-05-06T08:16:23.127Z,16.20
2019-05-06T08:18:52.525Z,15.08
2019-05-06T08:21:23.532Z,16.07
2019-05-06T08:26:23.478Z,12.35
2019-05-06T08:28:52.627Z,20.52
2019-05-06T08:31:22.571Z,15.38
2019-05-06T08:33:52.771Z,14.98
2019-05-06T08:36:34.756Z,18.37
2019-05-06T08:39:04.923Z,13.45
2019-05-06T08:41:33.425Z,15.88
2019-05-06T08:44:02.700Z,12.35
2019-05-06T08:46:32.747Z,12.93
2019-05-06T08:49:03.101Z,19.77
2019-05-06T08:51:44.582Z,13.32
2019-05-06T08:54:23.871Z,15.98
2019-05-06T08:56:53.553Z,14.87
2019-05-06T08:59:24.051Z,16.62
2019-05-06T09:01:55.761Z,12.93
2019-05-06T09:04:24.270Z,13.03
2019-05-06T09:06:53.555Z,12.63
2019-05-06T09:09:22.523Z,15.40
2019-05-06T09:11:53.263Z,19.95
2019-05-06T09:14:23.210Z,8.98
2019-05-06T09:16:53.872Z,14.38
2019-05-06T09:19:23.282Z,10.08
2019-05-06T09:21:53.371Z,11.00
2019-05-06T09:24:23.097Z,17.27
2019-05-06T09:26:54.407Z,9.50
2019-05-06T09:29:33.353Z,13.78
2019-05-06T09:32:18.464Z,9.58
2019-05-06T09:34:48.546Z,11.10
2019-05-06T09:37:18.441Z,16.90
2019-05-06T09:39:47.643Z,18.67
2019-05-06T09:42:16.338Z,12.78
2019-05-06T09:44:50.054Z,16.57
2019-05-06T09:47:25.392Z,10.95
2019-05-06T09:49:53.839Z,12.35
2019-05-06T09:52:23.173Z,8.03
2019-05-06T09:55:05.754Z,9.48
2019-05-06T09:57:52.385Z,12.30
2019-05-06T10:00:23.505Z,14.55
2019-05-06T10:02:52.731Z,13.45
2019-05-06T10:05:21.757Z,12.00
2019-05-06T10:07:52.276Z,13.85
2019-05-06T10:10:22.317Z,10.48
2019-05-06T10:12:52.873Z,9.98
2019-05-06T10:15:22.030Z,11.30
2019-05-06T10:18:09.179Z,10.30
2019-05-06T10:20:42.721Z,10.85
2019-05-06T10:23:10.951Z,10.93
2019-05-06T10:25:39.768Z,8.45
2019-05-06T10:28:13.296Z,6.97
2019-05-06T10:30:42.785Z,14.98
2019-05-06T10:33:12.872Z,10.82
2019-05-06T10:35:42.855Z,9.78
2019-05-06T10:38:25.551Z,9.80
2019-05-06T10:41:06.702Z,9.75
2019-05-06T10:43:38.938Z,10.15
2019-05-06T10:46:07.439Z,12.70
2019-05-06T10:48:35.889Z,12.65
2019-05-06T10:51:25.080Z,12.65
2019-05-06T10:53:53.570Z,12.53
2019-05-06T10:56:29.453Z,15.50
2019-05-06T10:59:03.455Z,11.40
2019-05-06T11:01:33.577Z,11.75
2019-05-06T11:04:03.275Z,9.68
2019-05-06T11:06:33.668Z,6.87
2019-05-06T11:09:03.766Z,10.60
2019-05-06T11:11:38.162Z,12.85
2019-05-06T11:14:03.062Z,9.63
2019-05-06T11:16:33.311Z,7.45
2019-05-06T11:19:05.186Z,12.43
2019-05-06T11:21:33.710Z,9.95
2019-05-06T11:24:06.029Z,13.85
2019-05-06T11:26:32.332Z,7.37
2019-05-06T11:29:06.341Z,10.48
2019-05-06T11:31:43.079Z,11.18
2019-05-06T11:34:22.200Z,7.20
2019-05-06T11:37:08.601Z,6.33
2019-05-06T11:39:37.055Z,6.35
2019-05-06T11:42:25.113Z,7.80
2019-05-06T11:44:37.218Z,10.88
2019-05-06T11:47:06.732Z,10.38
2019-05-06T11:49:35.173Z,6.30
2019-05-06T11:52:04.866Z,12.18
2019-05-06T11:54:33.905Z,17.62
2019-05-06T11:57:03.420Z,10.53
2019-05-06T11:59:33.397Z,10.13
2019-05-06T12:02:03.466Z,9.05
2019-05-06T12:04:32.892Z,8.18
2019-05-06T12:07:10.344Z,8.70
2019-05-06T12:09:33.089Z,10.80
2019-05-06T12:12:03.267Z,7.30
2019-05-06T12:14:32.006Z,6.47
2019-05-06T12:17:02.209Z,8.88
2019-05-06T12:19:32.443Z,6.90
2019-05-06T12:22:02.040Z,10.30
2019-05-06T12:24:30.476Z,7.00
2019-05-06T12:26:58.924Z,8.43
2019-05-06T12:29:27.360Z,17.87
2019-05-06T12:31:57.464Z,7.45
2019-05-06T12:34:26.069Z,8.28
2019-05-06T12:36:56.160Z,6.33
2019-05-06T12:39:26.276Z,8.35
2019-05-06T12:42:08.401Z,10.82
2019-05-06T12:44:38.474Z,7.67
2019-05-06T12:47:23.292Z,11.43
2019-05-06T12:49:53.314Z,8.80
2019-05-06T12:52:23.268Z,8.13
2019-05-06T12:54:54.239Z,6.55
2019-05-06T12:57:23.434Z,9.65
2019-05-06T12:59:53.004Z,6.55
2019-05-06T13:02:23.837Z,4.55
2019-05-06T13:04:59.632Z,9.33
2019-05-06T13:07:24.308Z,5.00
2019-05-06T13:09:53.025Z,7.70
2019-05-06T13:12:23.343Z,5.20
2019-05-06T13:14:52.677Z,9.28
2019-05-06T13:17:23.016Z,10.63
2019-05-06T13:19:52.336Z,4.40
2019-05-06T13:22:28.459Z,5.67
2019-05-06T13:24:56.909Z,7.05
2019-05-06T13:27:27.419Z,4.15
2019-05-06T13:29:55.586Z,6.50
2019-05-06T13:32:25.672Z,4.60
2019-05-06T13:34:54.103Z,8.05
2019-05-06T13:37:24.246Z,4.25
2019-05-06T13:39:53.102Z,6.75
2019-05-06T13:42:23.329Z,6.37
2019-05-06T13:44:51.782Z,8.45
2019-05-06T13:47:38.221Z,9.53
2019-05-06T13:50:07.669Z,12.95
2019-05-06T13:52:37.807Z,9.70
2019-05-06T13:55:09.166Z,9.53
2019-05-06T13:57:39.466Z,8.73
2019-05-06T14:00:08.528Z,13.15
2019-05-06T14:02:44.744Z,8.13
2019-05-06T14:05:14.511Z,7.70
2019-05-06T14:07:43.467Z,11.75
2019-05-06T14:10:13.171Z,9.30
2019-05-06T14:12:42.823Z,9.13
2019-05-06T14:15:12.602Z,8.93
2019-05-06T14:17:42.370Z,9.35
2019-05-06T14:20:12.483Z,10.30
2019-05-06T14:22:43.766Z,7.90
2019-05-06T14:25:19.175Z,9.65
2019-05-06T14:27:49.328Z,11.88
2019-05-06T14:30:37.219Z,7.55
2019-05-06T14:33:05.713Z,9.18
2019-05-06T14:35:34.175Z,11.12
2019-05-06T14:38:03.287Z,10.48
2019-05-06T14:40:33.546Z,11.08
2019-05-06T14:43:02.663Z,10.38
2019-05-06T14:45:33.255Z,10.00
2019-05-06T14:48:01.790Z,12.68
2019-05-06T14:50:43.166Z,10.78
2019-05-06T14:53:02.633Z,10.90
2019-05-06T14:55:32.804Z,12.15
2019-05-06T14:58:04.319Z,12.95
2019-05-06T15:00:31.976Z,13.30
2019-05-06T15:03:02.220Z,10.82
2019-05-06T15:05:32.554Z,11.63
2019-05-06T15:08:01.973Z,14.15
2019-05-06T15:10:32.291Z,10.43
2019-05-06T15:13:02.119Z,8.70
2019-05-06T15:15:32.397Z,12.43
2019-05-06T15:18:02.875Z,9.70
2019-05-06T15:20:34.133Z,11.57
2019-05-06T15:23:04.294Z,13.20
2019-05-06T15:25:32.682Z,9.75
2019-05-06T15:28:02.496Z,11.47
2019-05-06T15:30:34.065Z,9.48
2019-05-06T15:33:02.692Z,10.05
2019-05-06T15:35:33.174Z,11.53
2019-05-06T15:38:03.276Z,9.10
2019-05-06T15:40:35.990Z,8.85
2019-05-06T15:43:02.262Z,12.15
2019-05-06T15:45:32.480Z,10.23
2019-05-06T15:48:02.633Z,11.00
2019-05-06T15:50:32.458Z,15.25
2019-05-06T15:53:02.007Z,11.95
2019-05-06T15:55:32.616Z,11.60
2019-05-06T15:58:03.256Z,13.62
2019-05-06T16:00:33.059Z,16.93
2019-05-06T16:03:01.169Z,20.48
2019-05-06T16:05:31.077Z,19.67
2019-05-06T16:07:59.783Z,15.53
2019-05-06T16:10:28.198Z,21.80
2019-05-06T16:12:56.652Z,23.38
2019-05-06T16:15:26.599Z,18.00
2019-05-06T16:17:55.023Z,19.77
2019-05-06T16:20:24.350Z,20.97
2019-05-06T16:22:54.431Z,23.32
2019-05-06T16:25:22.861Z,22.80
2019-05-06T16:27:54.589Z,25.82
2019-05-06T16:30:24.528Z,28.75
2019-05-06T16:32:53.162Z,26.82
2019-05-06T16:35:22.884Z,25.92
2019-05-06T16:37:51.428Z,21.73
2019-05-06T16:40:20.198Z,25.57
2019-05-06T16:42:48.630Z,23.12
2019-05-06T16:45:18.869Z,19.70
2019-05-06T16:47:47.542Z,26.80
2019-05-06T16:50:36.774Z,24.32
2019-05-06T16:53:05.225Z,24.00
2019-05-06T16:55:55.597Z,29.52
2019-05-06T16:58:27.855Z,25.02
2019-05-06T17:00:56.280Z,26.05
2019-05-06T17:03:42.818Z,26.95
2019-05-06T17:06:19.104Z,24.92
2019-05-06T17:08:47.601Z,22.55
2019-05-06T17:11:26.978Z,23.07
2019-05-06T17:13:46.151Z,27.90
2019-05-06T17:16:14.573Z,23.35
2019-05-06T17:18:42.993Z,30.82
2019-05-06T17:21:13.164Z,25.70
2019-05-06T17:23:42.315Z,24.82
2019-05-06T17:26:12.733Z,29.18
2019-05-06T17:28:42.670Z,26.40
2019-05-06T17:31:24.326Z,26.20
2019-05-06T17:33:54.471Z,29.77
2019-05-06T17:36:27.168Z,27.70
2019-05-06T17:39:10.742Z,27.13
2019-05-06T17:41:46.094Z,29.95
2019-05-06T17:44:12.027Z,24.77
2019-05-06T17:46:42.724Z,23.57
2019-05-06T17:49:20.936Z,21.33
2019-05-06T17:51:56.760Z,28.10
2019-05-06T17:54:25.920Z,24.02
2019-05-06T17:56:54.569Z,30.10
2019-05-06T17:59:23.019Z,25.17
2019-05-06T18:01:53.291Z,27.20
2019-05-06T18:04:22.785Z,29.27
2019-05-06T18:06:52.625Z,40.58
2019-05-06T18:09:22.357Z,33.80
2019-05-06T18:11:58.276Z,53.30
2019-05-06T18:14:23.003Z,81.17
2019-05-06T18:16:53.606Z,76.17
2019-05-06T18:19:22.304Z,44.38
2019-05-06T18:21:52.803Z,35.68
2019-05-06T18:24:22.914Z,51.83
2019-05-06T18:26:52.835Z,47.23
2019-05-06T18:29:22.205Z,31.57
2019-05-06T18:31:52.511Z,27.67
2019-05-06T18:34:23.039Z,25.95
2019-05-06T18:36:52.493Z,24.63
2019-05-06T18:39:22.340Z,30.80
2019-05-06T18:41:53.069Z,25.87
2019-05-06T18:44:22.746Z,27.98
2019-05-06T18:46:53.055Z,30.43
2019-05-06T18:49:22.199Z,29.65
2019-05-06T18:51:52.033Z,26.90
2019-05-06T18:54:22.095Z,35.10
2019-05-06T18:56:52.177Z,32.25
2019-05-06T18:59:22.985Z,29.95
2019-05-06T19:01:50.936Z,28.85
2019-05-06T19:04:26.716Z,27.73
2019-05-06T19:07:09.288Z,27.17
2019-05-06T19:09:29.735Z,30.50
2019-05-06T19:11:58.240Z,27.93
2019-05-06T19:14:26.652Z,26.45
2019-05-06T19:16:55.436Z,32.53
2019-05-06T19:19:23.907Z,35.38
2019-05-06T19:21:52.596Z,33.30
2019-05-06T19:24:22.682Z,31.30
2019-05-06T19:26:52.749Z,31.95
2019-05-06T19:29:23.247Z,34.90
2019-05-06T19:31:52.198Z,35.43
2019-05-06T19:34:20.631Z,39.88
2019-05-06T19:36:49.079Z,36.00
2019-05-06T19:39:17.490Z,35.78
2019-05-06T19:41:45.933Z,42.03
2019-05-06T19:44:14.352Z,38.20
2019-05-06T19:46:42.810Z,35.85
2019-05-06T19:49:11.247Z,37.80
2019-05-06T19:51:42.804Z,38.90
2019-05-06T19:54:12.664Z,38.13
2019-05-06T19:56:42.493Z,34.08
2019-05-06T19:59:12.889Z,35.15
2019-05-06T20:01:42.939Z,40.92
2019-05-06T20:04:13.172Z,39.33
2019-05-06T20:06:44.926Z,37.65
2019-05-06T20:09:30.278Z,41.83
2019-05-06T20:12:06.103Z,37.30
2019-05-06T20:14:34.510Z,34.23
2019-05-06T20:17:03.737Z,38.15
2019-05-06T20:19:33.908Z,39.83
2019-05-06T20:22:02.580Z,32.25
2019-05-06T20:24:33.074Z,35.78
2019-05-06T20:27:02.402Z,27.80
2019-05-06T20:29:32.983Z,35.83
2019-05-06T20:32:01.101Z,33.00
2019-05-06T20:34:29.515Z,33.18
2019-05-06T20:36:57.951Z,34.35
2019-05-06T20:39:26.399Z,35.25
2019-05-06T20:41:54.823Z,37.28
2019-05-06T20:44:23.245Z,38.70
2019-05-06T20:46:52.719Z,43.78
2019-05-06T20:49:21.196Z,39.03
2019-05-06T20:51:51.962Z,43.90
2019-05-06T20:54:19.774Z,46.08
2019-05-06T20:56:48.225Z,47.80
2019-05-06T20:59:16.634Z,44.88
2019-05-06T21:01:46.286Z,43.25
2019-05-06T21:04:14.721Z,48.23
2019-05-06T21:06:43.156Z,50.70
2019-05-06T21:09:12.465Z,51.92
2019-05-06T21:11:42.127Z,46.55
2019-05-06T21:14:13.052Z,49.15
2019-05-06T21:16:42.274Z,41.50
2019-05-06T21:19:12.630Z,36.28
2019-05-06T21:21:43.229Z,29.55
2019-05-06T21:24:13.034Z,41.37
2019-05-06T21:26:42.906Z,43.80
2019-05-06T21:29:12.794Z,37.40
2019-05-06T21:31:42.271Z,34.73
2019-05-06T21:34:12.665Z,34.50
2019-05-06T21:36:42.263Z,32.15
2019-05-06T21:39:13.044Z,36.90
2019-05-06T21:41:42.749Z,28.12
2019-05-06T21:44:13.269Z,37.00
2019-05-06T21:46:42.925Z,38.53
2019-05-06T21:49:12.105Z,22.42
2019-05-06T21:51:42.568Z,32.13
2019-05-06T21:54:12.544Z,28.65
2019-05-06T21:56:42.411Z,31.10
2019-05-06T21:59:12.963Z,33.63
2019-05-06T22:01:42.968Z,34.55
2019-05-06T22:04:12.771Z,33.23
2019-05-06T22:06:45.507Z,30.70
2019-05-06T22:09:13.460Z,28.60
2019-05-06T22:11:42.458Z,34.67
2019-05-06T22:14:12.315Z,30.97
2019-05-06T22:16:44.008Z,29.12
2019-05-06T22:19:12.450Z,32.88
2019-05-06T22:22:00.530Z,29.48
2019-05-06T22:24:46.720Z,32.13
2019-05-06T22:27:16.012Z,33.53
2019-05-06T22:29:44.431Z,35.58
2019-05-06T22:32:15.030Z,43.45
2019-05-06T22:34:43.114Z,35.55
2019-05-06T22:37:12.524Z,38.28
2019-05-06T22:39:43.577Z,37.17
2019-05-06T22:42:11.366Z,34.18
2019-05-06T22:44:46.084Z,36.33
2019-05-06T22:47:15.135Z,38.70
2019-05-06T22:49:43.541Z,35.63
2019-05-06T22:52:12.663Z,36.35
2019-05-06T22:54:43.166Z,40.48
2019-05-06T22:57:12.050Z,36.30
2019-05-06T22:59:42.573Z,40.67
2019-05-06T23:02:15.536Z,39.25
2019-05-06T23:04:45.612Z,40.63
2019-05-06T23:07:14.330Z,38.17
2019-05-06T23:09:43.038Z,35.88
2019-05-06T23:12:12.320Z,40.85
2019-05-06T23:14:42.084Z,36.10
2019-05-06T23:17:12.736Z,44.75
2019-05-06T23:19:42.617Z,40.05
2019-05-06T23:22:12.091Z,38.35
2019-05-06T23:24:40.644Z,40.23
2019-05-06T23:27:09.072Z,44.63
2019-05-06T23:29:37.526Z,50.48
2019-05-06T23:32:05.980Z,47.45
2019-05-06T23:34:34.431Z,43.00
2019-05-06T23:37:08.533Z,46.30
2019-05-06T23:40:15.146Z,42.58
2019-05-06T23:43:19.677Z,45.88
2019-05-06T23:46:24.394Z,39.63
2019-05-06T23:49:29.059Z,40.85
2019-05-06T23:52:33.605Z,45.20
2019-05-06T23:55:38.117Z,41.40
2019-05-06T23:58:05.402Z,46.15
